Saturday, February 24, 2018, 12:08 PM CST
Back to Local

KIKK, Kankakee, Greater Kankakee Airport

Location: Kankakee, IL, United States Lat: 41.071
Local Time: 12:08 PM CST (18:08 GMT) Lon: -87.846
Time Zone: US/Central Elev: 629 ft

Show me the last for .
Show Decoded

2018-02-24 11:35 METAR KIKK 241735Z AUTO 10010KT 10SM OVC010 05/03 A3002 RMK AO2 T00500033 =
2018-02-24 11:15 METAR KIKK 241715Z AUTO 10012KT 10SM OVC010 05/03 A3003 RMK AO2 T00470031 =
2018-02-24 10:55 METAR KIKK 241655Z AUTO 09014G19KT 10SM OVC010 04/03 A3005 RMK AO2 T00420025 =
2018-02-24 10:35 METAR KIKK 241635Z AUTO 08012KT 10SM OVC010 04/02 A3007 RMK AO2 T00400023 =
2018-02-24 10:15 METAR KIKK 241615Z AUTO 09013KT 10SM OVC010 04/02 A3009 RMK AO2 T00360019 =
2018-02-24 09:55 METAR KIKK 241555Z AUTO 10012KT 10SM OVC012 03/02 A3011 RMK AO2 T00330016 =
2018-02-24 09:35 METAR KIKK 241535Z AUTO 10011KT 10SM OVC012 03/02 A3012 RMK AO2 T00320015 =
2018-02-24 09:15 METAR KIKK 241515Z AUTO 09009KT 10SM OVC012 03/01 A3013 RMK AO2 T00280014 =
2018-02-24 08:55 METAR KIKK 241455Z AUTO 08008KT 7SM -DZ OVC012 03/01 A3014 RMK AO2 T00260014 =
2018-02-24 08:35 METAR KIKK 241435Z AUTO 08009KT 7SM DZ BKN012 OVC019 03/01 A3015 RMK AO2
                 T00250010 =
2018-02-24 08:15 METAR KIKK 241415Z AUTO 08008KT 10SM -RA SCT014 BKN019 OVC070 03/01 A3016 RMK
                 AO2 T00250007 =
2018-02-24 07:55 METAR KIKK 241355Z AUTO 09008KT 10SM OVC070 02/01 A3015 RMK AO2 T00230007 =
2018-02-24 07:35 METAR KIKK 241335Z AUTO 09012KT 10SM -DZ SCT013 SCT049 OVC070 02/01 A3014 RMK
                 AO2 T00210005 =
2018-02-24 07:15 METAR KIKK 241315Z AUTO 07012G16KT 10SM SCT013 OVC070 02/01 A3014 RMK AO2
                 T00210005 =
2018-02-24 06:55 METAR KIKK 241255Z AUTO 08009KT 10SM OVC070 02/01 A3015 RMK AO2 T00200005 =
2018-02-24 06:35 METAR KIKK 241235Z AUTO 07009KT 10SM -DZ SCT015 BKN065 OVC070 02/00 A3016 RMK
                 AO2 T00200002 =
2018-02-24 06:15 METAR KIKK 241215Z AUTO 07008KT 10SM -DZ SCT015 BKN046 OVC065 02/00 A3017 RMK
                 AO2 T00200000 =
2018-02-24 05:55 METAR KIKK 241155Z AUTO 07008KT 10SM OVC065 02/00 A3016 RMK AO2 T00200000 10020
                 20014 =
2018-02-24 05:35 METAR KIKK 241135Z AUTO 07010KT 10SM SCT017 OVC070 02/00 A3016 RMK AO2 T00200001
                 =
2018-02-24 05:15 METAR KIKK 241115Z AUTO 06009KT 10SM BKN017 OVC080 02/00 A3016 RMK AO2 T00200001
                 =
2018-02-24 04:55 METAR KIKK 241055Z AUTO 06008KT 10SM BKN015 OVC085 02/00 A3017 RMK AO2 T00200002
                 =
2018-02-24 04:35 METAR KIKK 241035Z AUTO 05010KT 10SM OVC015 02/00 A3017 RMK AO2 T00200004 =
2018-02-24 04:15 METAR KIKK 241015Z AUTO 05007KT 10SM OVC015 02/01 A3018 RMK AO2 T00200006 =
2018-02-24 03:55 METAR KIKK 240955Z AUTO 05007KT 10SM BKN017 OVC090 02/01 A3019 RMK AO2 T00170006
                 =
2018-02-24 03:35 METAR KIKK 240935Z AUTO 07006KT 10SM BKN017 OVC090 02/00 A3019 RMK AO2 T00160003
                 =
2018-02-24 03:15 METAR KIKK 240915Z AUTO 06005KT 10SM BKN017 OVC090 02/00 A3020 RMK AO2 T00150002
                 =
2018-02-24 02:55 METAR KIKK 240855Z AUTO 03008KT 10SM BKN017 OVC090 02/00 A3021 RMK AO2 T00150001
                 =
2018-02-24 02:35 METAR KIKK 240835Z AUTO 07003KT 10SM SCT017 OVC090 02/00 A3023 RMK AO2 T00150000
                 =
2018-02-24 02:15 METAR KIKK 240815Z AUTO 06005KT 10SM OVC090 02/00 A3022 RMK AO2 T00150000 =
2018-02-24 01:55 METAR KIKK 240755Z AUTO 05003KT 10SM SCT100 02/00 A3024 RMK AO2 T00150000 =
2018-02-24 01:35 METAR KIKK 240735Z AUTO 03004KT 10SM CLR 02/00 A3024 RMK AO2 T00151001 =
2018-02-24 01:15 METAR KIKK 240715Z AUTO 02004KT 10SM CLR 02/00 A3024 RMK AO2 T00151001 =
2018-02-24 00:55 METAR KIKK 240655Z AUTO 01006KT 10SM CLR 02/00 A3023 RMK AO2 LTG DSNT SW
                 T00160000 =
2018-02-24 00:35 METAR KIKK 240635Z AUTO 02005KT 10SM CLR 02/00 A3024 RMK AO2 T00170000 =
2018-02-24 00:15 METAR KIKK 240615Z AUTO 01005KT 10SM CLR 02/00 A3024 RMK AO2 T00200001 =
2018-02-23 23:55 METAR KIKK 240555Z AUTO 35007KT 10SM CLR 02/01 A3025 RMK AO2 T00180007 10032
                 20017 400700017 =
2018-02-23 23:35 METAR KIKK 240535Z AUTO 00000KT 10SM CLR 02/01 A3026 RMK AO2 T00170009 =
2018-02-23 23:15 METAR KIKK 240515Z AUTO 00000KT 10SM SCT018 02/01 A3027 RMK AO2 T00200009 =
2018-02-23 22:55 METAR KIKK 240455Z AUTO 28003KT 10SM BKN018 02/01 A3027 RMK AO2 T00230010 =
2018-02-23 22:35 METAR KIKK 240435Z AUTO 32003KT 10SM BKN016 02/01 A3027 RMK AO2 LTG DSNT SW
                 T00230010 =
2018-02-23 22:15 METAR KIKK 240415Z AUTO 31004KT 10SM SCT018 02/01 A3027 RMK AO2 T00210009 =
2018-02-23 21:55 METAR KIKK 240355Z AUTO 00000KT 10SM BKN018 02/01 A3027 RMK AO2 T00220010 =
2018-02-23 21:35 METAR KIKK 240335Z AUTO 29003KT 10SM BKN018 02/01 A3029 RMK AO2 T00230010 =
2018-02-23 21:15 METAR KIKK 240315Z AUTO 00000KT 10SM BKN018 02/01 A3028 RMK AO2 T00230010 =
2018-02-23 20:55 METAR KIKK 240255Z AUTO 26005KT 10SM SCT013 OVC018 03/01 A3029 RMK AO2 T00250009
                 =
2018-02-23 20:35 METAR KIKK 240235Z AUTO 00000KT 10SM BKN013 OVC018 03/01 A3028 RMK AO2 T00300010
                 =
2018-02-23 20:15 METAR KIKK 240215Z AUTO 29004KT 10SM OVC011 03/01 A3028 RMK AO2 T00300010 =
2018-02-23 19:55 METAR KIKK 240155Z AUTO 29006KT 10SM OVC011 03/01 A3028 RMK AO2 T00300010 =
2018-02-23 19:35 METAR KIKK 240135Z AUTO 28004KT 10SM OVC011 03/01 A3027 RMK AO2 T00300013 =
2018-02-23 19:15 METAR KIKK 240115Z AUTO 28005KT 10SM OVC011 03/02 A3028 RMK AO2 T00300015 =
2018-02-23 18:55 METAR KIKK 240055Z AUTO 28007KT 10SM OVC011 03/02 A3029 RMK AO2 T00310015 =
2018-02-23 18:35 METAR KIKK 240035Z AUTO 28006KT 10SM OVC011 03/01 A3028 RMK AO2 T00310011 =
2018-02-23 18:15 METAR KIKK 240015Z AUTO 29006KT 10SM OVC009 03/02 A3028 RMK AO2 T00320016 =
2018-02-23 17:55 METAR KIKK 232355Z AUTO 28008KT 10SM OVC009 03/02 A3027 RMK AO2 T00330018 10050
                 20033 =
2018-02-23 17:35 METAR KIKK 232335Z AUTO 28009KT 10SM OVC009 03/02 A3027 RMK AO2 T00330020 =
2018-02-23 17:15 METAR KIKK 232315Z AUTO 28010KT 10SM OVC009 04/02 A3028 RMK AO2 T00350021 =
2018-02-23 16:55 METAR KIKK 232255Z AUTO 28010KT 10SM OVC007 04/02 A3027 RMK AO2 T00350021 =
2018-02-23 16:35 METAR KIKK 232235Z AUTO 27009KT 10SM OVC007 04/02 A3026 RMK AO2 T00360024 =
2018-02-23 16:15 METAR KIKK 232215Z AUTO 27008KT 10SM OVC007 04/03 A3025 RMK AO2 T00370025 =
2018-02-23 15:55 METAR KIKK 232155Z AUTO 28011KT 10SM OVC009 04/03 A3025 RMK AO2 T00390026 =
2018-02-23 15:35 METAR KIKK 232135Z AUTO 27010KT 10SM OVC009 04/03 A3024 RMK AO2 T00400027 =
2018-02-23 15:15 METAR KIKK 232115Z AUTO 27014KT 10SM OVC009 04/03 A3025 RMK AO2 T00420028 =
2018-02-23 14:55 METAR KIKK 232055Z AUTO 28014KT 10SM OVC009 04/03 A3025 RMK AO2 T00420029 =
2018-02-23 14:35 METAR KIKK 232035Z AUTO 28011G15KT 10SM OVC007 04/03 A3024 RMK AO2 T00430030 =
2018-02-23 14:15 METAR KIKK 232015Z AUTO 27013G17KT 10SM OVC007 05/04 A3023 RMK AO2 T00450035 =
2018-02-23 13:55 METAR KIKK 231955Z AUTO 27013KT 10SM OVC007 05/04 A3022 RMK AO2 T00450035 =
2018-02-23 13:35 METAR KIKK 231935Z AUTO 27012KT 10SM OVC007 05/04 A3022 RMK AO2 T00450040 =
2018-02-23 13:15 METAR KIKK 231915Z AUTO 28014G17KT 10SM OVC007 05/04 A3022 RMK AO2 T00450041 =
2018-02-23 12:55 METAR KIKK 231855Z AUTO 27015G18KT 10SM OVC007 04/04 A3023 RMK AO2 T00440040 =
2018-02-23 12:35 METAR KIKK 231835Z AUTO 28016KT 10SM OVC009 05/04 A3022 RMK AO2 T00460043 =
2018-02-23 12:15 METAR KIKK 231815Z AUTO 28016KT 10SM OVC009 05/04 A3022 RMK AO2 T00470044 =

Support USWX by starting your Amazon purchase here.